sensor_id;sensor_type;location;lat;lon;timestamp;noise_LAeq;noise_LA_min;noise_LA_max;noise_LA01;noise_LA95
72466;Laerm;60471;52.150;4.508;2023-09-19T00:00:31;58.83;42.91;71.03;;
72466;Laerm;60471;52.150;4.508;2023-09-19T00:03:00;59.02;42.62;71.20;;
72466;Laerm;60471;52.150;4.508;2023-09-19T00:05:28;58.93;43.67;70.99;;
72466;Laerm;60471;52.150;4.508;2023-09-19T00:07:57;58.90;42.22;71.07;;
72466;Laerm;60471;52.150;4.508;2023-09-19T00:10:28;59.75;46.41;71.63;;
72466;Laerm;60471;52.150;4.508;2023-09-19T00:12:58;58.90;44.45;71.59;;
72466;Laerm;60471;52.150;4.508;2023-09-19T00:15:38;58.38;42.92;70.54;;
72466;Laerm;60471;52.150;4.508;2023-09-19T00:18:05;59.12;45.16;71.21;;
72466;Laerm;60471;52.150;4.508;2023-09-19T00:20:38;58.80;42.76;70.81;;
72466;Laerm;60471;52.150;4.508;2023-09-19T00:23:05;58.94;40.75;71.51;;
72466;Laerm;60471;52.150;4.508;2023-09-19T00:25:31;59.13;46.01;71.17;;
72466;Laerm;60471;52.150;4.508;2023-09-19T00:28:01;58.85;42.67;71.80;;
72466;Laerm;60471;52.150;4.508;2023-09-19T00:30:28;58.96;43.70;71.44;;
72466;Laerm;60471;52.150;4.508;2023-09-19T00:32:54;58.91;42.00;70.97;;
72466;Laerm;60471;52.150;4.508;2023-09-19T00:35:21;59.08;40.96;71.47;;
72466;Laerm;60471;52.150;4.508;2023-09-19T00:37:52;58.90;43.13;71.00;;
72466;Laerm;60471;52.150;4.508;2023-09-19T00:40:19;58.93;41.48;71.02;;
72466;Laerm;60471;52.150;4.508;2023-09-19T00:42:49;59.05;43.29;71.13;;
72466;Laerm;60471;52.150;4.508;2023-09-19T00:45:17;59.02;43.83;71.20;;
72466;Laerm;60471;52.150;4.508;2023-09-19T00:47:47;58.77;41.61;71.55;;
72466;Laerm;60471;52.150;4.508;2023-09-19T00:50:18;58.80;41.28;71.14;;
72466;Laerm;60471;52.150;4.508;2023-09-19T00:52:50;58.96;42.98;70.84;;
72466;Laerm;60471;52.150;4.508;2023-09-19T00:55:19;58.88;42.68;71.59;;
72466;Laerm;60471;52.150;4.508;2023-09-19T00:57:46;59.00;43.73;71.17;;
72466;Laerm;60471;52.150;4.508;2023-09-19T01:00:16;58.80;42.55;71.17;;
72466;Laerm;60471;52.150;4.508;2023-09-19T01:02:47;58.93;42.29;70.95;;
72466;Laerm;60471;52.150;4.508;2023-09-19T01:05:14;59.12;44.78;71.03;;
72466;Laerm;60471;52.150;4.508;2023-09-19T01:07:42;59.16;43.35;71.73;;
72466;Laerm;60471;52.150;4.508;2023-09-19T01:10:12;59.57;46.11;71.39;;
72466;Laerm;60471;52.150;4.508;2023-09-19T01:13:03;59.18;46.37;73.14;;
72466;Laerm;60471;52.150;4.508;2023-09-19T01:18:55;58.73;44.30;71.63;;
72466;Laerm;60471;52.150;4.508;2023-09-19T01:30:43;58.34;42.44;71.28;;
72466;Laerm;60471;52.150;4.508;2023-09-19T01:33:10;50.28;43.66;72.20;;
72466;Laerm;60471;52.150;4.508;2023-09-19T01:35:40;59.41;45.78;71.25;;
72466;Laerm;60471;52.150;4.508;2023-09-19T01:38:07;60.21;47.11;72.32;;
72466;Laerm;60471;52.150;4.508;2023-09-19T01:40:43;60.23;49.60;71.28;;
72466;Laerm;60471;52.150;4.508;2023-09-19T01:43:27;59.11;43.47;71.83;;
72466;Laerm;60471;52.150;4.508;2023-09-19T01:46:24;58.63;42.54;71.13;;
72466;Laerm;60471;52.150;4.508;2023-09-19T01:49:25;58.67;44.50;74.48;;
72466;Laerm;60471;52.150;4.508;2023-09-19T01:52:11;59.70;48.07;74.46;;
72466;Laerm;60471;52.150;4.508;2023-09-19T01:54:52;60.60;49.33;76.62;;
72466;Laerm;60471;52.150;4.508;2023-09-19T01:57:35;59.49;45.77;73.83;;
72466;Laerm;60471;52.150;4.508;2023-09-19T02:00:07;59.64;45.03;72.48;;
72466;Laerm;60471;52.150;4.508;2023-09-19T02:02:42;59.07;46.41;71.88;;
72466;Laerm;60471;52.150;4.508;2023-09-19T02:05:10;59.27;44.18;72.15;;
72466;Laerm;60471;52.150;4.508;2023-09-19T02:07:38;59.55;45.28;71.32;;
72466;Laerm;60471;52.150;4.508;2023-09-19T02:10:07;59.23;42.76;71.43;;
72466;Laerm;60471;52.150;4.508;2023-09-19T02:12:33;59.78;44.55;76.66;;
72466;Laerm;60471;52.150;4.508;2023-09-19T02:15:00;59.45;45.52;71.06;;
72466;Laerm;60471;52.150;4.508;2023-09-19T02:17:26;59.76;45.28;74.42;;
72466;Laerm;60471;52.150;4.508;2023-09-19T02:19:54;59.36;44.56;71.12;;
72466;Laerm;60471;52.150;4.508;2023-09-19T02:22:21;59.55;44.96;78.94;;
72466;Laerm;60471;52.150;4.508;2023-09-19T02:24:48;59.41;46.50;71.02;;
72466;Laerm;60471;52.150;4.508;2023-09-19T02:27:15;59.68;46.58;72.15;;
72466;Laerm;60471;52.150;4.508;2023-09-19T02:29:42;59.25;44.56;71.22;;
72466;Laerm;60471;52.150;4.508;2023-09-19T02:32:09;59.16;44.20;72.53;;
72466;Laerm;60471;52.150;4.508;2023-09-19T02:34:37;59.67;48.17;71.60;;
72466;Laerm;60471;52.150;4.508;2023-09-19T02:37:05;59.39;45.77;71.20;;
72466;Laerm;60471;52.150;4.508;2023-09-19T02:39:32;59.37;44.52;71.46;;
72466;Laerm;60471;52.150;4.508;2023-09-19T02:41:58;60.04;46.31;75.70;;
72466;Laerm;60471;52.150;4.508;2023-09-19T02:44:25;59.75;46.66;70.81;;
72466;Laerm;60471;52.150;4.508;2023-09-19T02:46:51;59.51;47.43;71.27;;
72466;Laerm;60471;52.150;4.508;2023-09-19T02:49:17;60.21;47.39;72.42;;
72466;Laerm;60471;52.150;4.508;2023-09-19T02:51:44;59.82;46.83;71.33;;
72466;Laerm;60471;52.150;4.508;2023-09-19T02:54:11;59.27;43.62;71.96;;
72466;Laerm;60471;52.150;4.508;2023-09-19T02:56:38;60.35;46.29;80.56;;
72466;Laerm;60471;52.150;4.508;2023-09-19T02:59:04;59.40;45.08;71.61;;
72466;Laerm;60471;52.150;4.508;2023-09-19T03:01:31;59.66;46.25;71.45;;
72466;Laerm;60471;52.150;4.508;2023-09-19T03:03:58;59.71;46.80;71.35;;
72466;Laerm;60471;52.150;4.508;2023-09-19T03:06:24;59.39;46.44;71.69;;
72466;Laerm;60471;52.150;4.508;2023-09-19T03:08:51;60.02;46.35;75.58;;
72466;Laerm;60471;52.150;4.508;2023-09-19T03:11:18;59.63;47.10;71.22;;
72466;Laerm;60471;52.150;4.508;2023-09-19T03:13:52;60.94;49.82;76.15;;
72466;Laerm;60471;52.150;4.508;2023-09-19T03:16:19;59.67;47.54;71.67;;
72466;Laerm;60471;52.150;4.508;2023-09-19T03:18:48;60.10;47.95;71.23;;
72466;Laerm;60471;52.150;4.508;2023-09-19T03:21:16;59.57;47.95;72.25;;
72466;Laerm;60471;52.150;4.508;2023-09-19T03:23:43;59.79;47.80;74.83;;
72466;Laerm;60471;52.150;4.508;2023-09-19T03:26:13;59.88;47.36;72.13;;
72466;Laerm;60471;52.150;4.508;2023-09-19T03:28:42;60.07;50.21;71.29;;
72466;Laerm;60471;52.150;4.508;2023-09-19T03:31:09;59.90;48.64;71.25;;
72466;Laerm;60471;52.150;4.508;2023-09-19T03:33:36;60.53;49.20;72.13;;
72466;Laerm;60471;52.150;4.508;2023-09-19T03:36:04;60.37;48.14;81.79;;
72466;Laerm;60471;52.150;4.508;2023-09-19T03:38:33;60.17;48.79;76.55;;
72466;Laerm;60471;52.150;4.508;2023-09-19T03:41:01;59.92;49.37;70.94;;
72466;Laerm;60471;52.150;4.508;2023-09-19T03:43:28;60.08;48.51;71.25;;
72466;Laerm;60471;52.150;4.508;2023-09-19T03:45:54;60.04;49.02;71.04;;
72466;Laerm;60471;52.150;4.508;2023-09-19T03:48:20;60.30;49.63;71.87;;
72466;Laerm;60471;52.150;4.508;2023-09-19T03:50:47;60.21;49.78;75.23;;
72466;Laerm;60471;52.150;4.508;2023-09-19T03:53:14;60.25;48.97;73.96;;
72466;Laerm;60471;52.150;4.508;2023-09-19T03:55:40;61.22;51.27;75.72;;
72466;Laerm;60471;52.150;4.508;2023-09-19T03:58:06;60.31;50.58;73.54;;
72466;Laerm;60471;52.150;4.508;2023-09-19T04:00:32;60.34;50.63;71.20;;
72466;Laerm;60471;52.150;4.508;2023-09-19T04:03:00;59.88;49.21;72.68;;
72466;Laerm;60471;52.150;4.508;2023-09-19T04:05:31;59.51;48.43;70.74;;
72466;Laerm;60471;52.150;4.508;2023-09-19T04:07:58;59.78;48.25;70.83;;
72466;Laerm;60471;52.150;4.508;2023-09-19T04:10:24;60.27;49.69;72.38;;
72466;Laerm;60471;52.150;4.508;2023-09-19T04:12:55;60.14;49.60;71.55;;
72466;Laerm;60471;52.150;4.508;2023-09-19T04:15:23;60.55;50.62;71.68;;
72466;Laerm;60471;52.150;4.508;2023-09-19T04:17:51;60.37;50.82;71.66;;
72466;Laerm;60471;52.150;4.508;2023-09-19T04:20:18;60.37;50.61;71.26;;
72466;Laerm;60471;52.150;4.508;2023-09-19T04:22:51;60.55;51.63;71.50;;
72466;Laerm;60471;52.150;4.508;2023-09-19T04:25:17;60.46;50.99;75.66;;
72466;Laerm;60471;52.150;4.508;2023-09-19T04:27:44;61.06;52.08;76.04;;
72466;Laerm;60471;52.150;4.508;2023-09-19T04:30:11;61.74;53.05;80.02;;
72466;Laerm;60471;52.150;4.508;2023-09-19T04:32:38;62.95;52.18;83.86;;
72466;Laerm;60471;52.150;4.508;2023-09-19T04:35:09;61.23;53.61;71.42;;
72466;Laerm;60471;52.150;4.508;2023-09-19T04:37:40;61.25;51.80;82.93;;
72466;Laerm;60471;52.150;4.508;2023-09-19T04:40:09;62.01;52.86;70.90;;
72466;Laerm;60471;52.150;4.508;2023-09-19T04:42:40;60.66;50.73;72.23;;
72466;Laerm;60471;52.150;4.508;2023-09-19T04:45:07;60.54;52.03;71.64;;
72466;Laerm;60471;52.150;4.508;2023-09-19T04:47:34;61.15;52.19;71.75;;
72466;Laerm;60471;52.150;4.508;2023-09-19T04:50:00;61.07;51.62;71.53;;
72466;Laerm;60471;52.150;4.508;2023-09-19T04:52:30;61.10;51.68;71.95;;
72466;Laerm;60471;52.150;4.508;2023-09-19T04:54:56;61.57;52.82;73.54;;
72466;Laerm;60471;52.150;4.508;2023-09-19T04:57:23;61.52;52.84;72.22;;
72466;Laerm;60471;52.150;4.508;2023-09-19T04:59:50;61.26;52.60;71.58;;
72466;Laerm;60471;52.150;4.508;2023-09-19T05:02:16;61.27;52.49;71.89;;
72466;Laerm;60471;52.150;4.508;2023-09-19T05:04:42;60.74;52.15;72.95;;
72466;Laerm;60471;52.150;4.508;2023-09-19T05:07:08;61.74;51.87;72.43;;
72466;Laerm;60471;52.150;4.508;2023-09-19T05:09:34;61.17;52.54;72.28;;
72466;Laerm;60471;52.150;4.508;2023-09-19T05:12:03;61.31;52.69;71.39;;
72466;Laerm;60471;52.150;4.508;2023-09-19T05:14:29;61.54;52.72;71.42;;
72466;Laerm;60471;52.150;4.508;2023-09-19T05:16:56;61.57;52.59;72.37;;
72466;Laerm;60471;52.150;4.508;2023-09-19T05:19:22;61.14;52.33;70.92;;
72466;Laerm;60471;52.150;4.508;2023-09-19T05:21:48;61.25;52.74;76.20;;
72466;Laerm;60471;52.150;4.508;2023-09-19T05:24:15;60.95;51.13;71.53;;
72466;Laerm;60471;52.150;4.508;2023-09-19T05:26:42;61.15;52.01;71.74;;
72466;Laerm;60471;52.150;4.508;2023-09-19T05:29:09;61.26;51.51;71.51;;
72466;Laerm;60471;52.150;4.508;2023-09-19T05:31:35;61.67;51.96;72.54;;
72466;Laerm;60471;52.150;4.508;2023-09-19T05:34:05;61.74;52.09;71.85;;
72466;Laerm;60471;52.150;4.508;2023-09-19T05:36:32;61.68;53.10;77.57;;
72466;Laerm;60471;52.150;4.508;2023-09-19T05:38:59;62.67;53.30;73.63;;
72466;Laerm;60471;52.150;4.508;2023-09-19T05:41:25;61.22;51.29;71.78;;
72466;Laerm;60471;52.150;4.508;2023-09-19T05:43:52;61.61;52.99;71.98;;
72466;Laerm;60471;52.150;4.508;2023-09-19T05:46:18;61.48;52.71;71.48;;
72466;Laerm;60471;52.150;4.508;2023-09-19T05:48:45;62.53;53.50;73.48;;
72466;Laerm;60471;52.150;4.508;2023-09-19T05:51:13;61.68;51.94;71.73;;
72466;Laerm;60471;52.150;4.508;2023-09-19T05:53:40;61.68;51.36;72.10;;
72466;Laerm;60471;52.150;4.508;2023-09-19T05:56:09;61.43;52.00;71.68;;
72466;Laerm;60471;52.150;4.508;2023-09-19T05:58:37;61.80;53.36;73.48;;
72466;Laerm;60471;52.150;4.508;2023-09-19T06:01:04;61.73;51.18;71.96;;
72466;Laerm;60471;52.150;4.508;2023-09-19T06:03:30;62.00;53.17;72.74;;
72466;Laerm;60471;52.150;4.508;2023-09-19T06:05:57;61.80;52.42;71.46;;
72466;Laerm;60471;52.150;4.508;2023-09-19T06:08:23;62.22;52.97;72.03;;
72466;Laerm;60471;52.150;4.508;2023-09-19T06:10:50;61.76;51.61;71.78;;
72466;Laerm;60471;52.150;4.508;2023-09-19T06:13:18;62.64;53.02;71.89;;
72466;Laerm;60471;52.150;4.508;2023-09-19T06:15:46;62.44;52.88;72.03;;
72466;Laerm;60471;52.150;4.508;2023-09-19T06:18:15;62.47;55.13;72.66;;
72466;Laerm;60471;52.150;4.508;2023-09-19T06:20:48;61.59;51.18;74.19;;
72466;Laerm;60471;52.150;4.508;2023-09-19T06:23:17;63.14;54.05;72.77;;
72466;Laerm;60471;52.150;4.508;2023-09-19T06:25:43;61.71;52.38;71.58;;
72466;Laerm;60471;52.150;4.508;2023-09-19T06:28:10;61.88;51.96;71.26;;
72466;Laerm;60471;52.150;4.508;2023-09-19T06:30:38;62.13;53.41;75.24;;
72466;Laerm;60471;52.150;4.508;2023-09-19T06:33:06;61.40;52.13;72.42;;
72466;Laerm;60471;52.150;4.508;2023-09-19T06:35:33;62.66;51.99;72.49;;
72466;Laerm;60471;52.150;4.508;2023-09-19T06:38:03;62.47;53.12;75.70;;
72466;Laerm;60471;52.150;4.508;2023-09-19T06:40:30;62.45;53.95;71.69;;
72466;Laerm;60471;52.150;4.508;2023-09-19T06:42:57;61.90;51.48;78.40;;
72466;Laerm;60471;52.150;4.508;2023-09-19T06:45:23;62.26;53.07;74.38;;
72466;Laerm;60471;52.150;4.508;2023-09-19T06:47:52;62.25;54.00;75.34;;
72466;Laerm;60471;52.150;4.508;2023-09-19T06:50:23;61.72;52.76;71.65;;
72466;Laerm;60471;52.150;4.508;2023-09-19T06:52:54;62.18;53.60;72.39;;
72466;Laerm;60471;52.150;4.508;2023-09-19T06:55:22;62.17;52.85;71.81;;
72466;Laerm;60471;52.150;4.508;2023-09-19T06:57:51;61.87;54.00;71.73;;
72466;Laerm;60471;52.150;4.508;2023-09-19T07:00:17;61.87;53.44;73.81;;
72466;Laerm;60471;52.150;4.508;2023-09-19T07:03:02;61.98;53.97;71.57;;
72466;Laerm;60471;52.150;4.508;2023-09-19T07:05:34;61.50;53.21;74.44;;
72466;Laerm;60471;52.150;4.508;2023-09-19T07:08:07;61.53;52.22;71.65;;
72466;Laerm;60471;52.150;4.508;2023-09-19T07:10:34;61.65;53.05;71.92;;
72466;Laerm;60471;52.150;4.508;2023-09-19T07:13:03;61.63;51.20;72.34;;
72466;Laerm;60471;52.150;4.508;2023-09-19T07:15:33;61.48;52.81;71.49;;
72466;Laerm;60471;52.150;4.508;2023-09-19T07:18:02;61.66;53.26;72.01;;
72466;Laerm;60471;52.150;4.508;2023-09-19T07:20:28;61.59;52.56;71.82;;
72466;Laerm;60471;52.150;4.508;2023-09-19T07:22:58;62.03;52.56;76.00;;
72466;Laerm;60471;52.150;4.508;2023-09-19T07:25:28;61.18;51.14;71.65;;
72466;Laerm;60471;52.150;4.508;2023-09-19T07:27:58;61.18;50.92;71.22;;
72466;Laerm;60471;52.150;4.508;2023-09-19T07:30:28;61.21;51.19;72.01;;
72466;Laerm;60471;52.150;4.508;2023-09-19T07:32:54;61.21;52.18;71.54;;
72466;Laerm;60471;52.150;4.508;2023-09-19T07:35:21;61.50;53.04;72.97;;
72466;Laerm;60471;52.150;4.508;2023-09-19T07:37:48;62.16;52.40;71.86;;
72466;Laerm;60471;52.150;4.508;2023-09-19T07:40:15;62.47;52.68;72.19;;
72466;Laerm;60471;52.150;4.508;2023-09-19T07:42:42;62.61;54.46;76.39;;
72466;Laerm;60471;52.150;4.508;2023-09-19T07:45:11;62.40;54.71;78.39;;
72466;Laerm;60471;52.150;4.508;2023-09-19T07:47:46;62.07;54.15;79.83;;
72466;Laerm;60471;52.150;4.508;2023-09-19T07:50:14;62.57;52.99;87.57;;
72466;Laerm;60471;52.150;4.508;2023-09-19T07:52:42;62.68;54.72;73.22;;
72466;Laerm;60471;52.150;4.508;2023-09-19T07:55:09;62.00;52.50;71.70;;
72466;Laerm;60471;52.150;4.508;2023-09-19T07:57:37;62.42;53.94;73.49;;
72466;Laerm;60471;52.150;4.508;2023-09-19T08:00:04;62.82;54.60;77.13;;
72466;Laerm;60471;52.150;4.508;2023-09-19T08:02:37;62.28;54.03;74.97;;
72466;Laerm;60471;52.150;4.508;2023-09-19T08:05:04;61.87;53.86;72.66;;
72466;Laerm;60471;52.150;4.508;2023-09-19T08:07:32;62.08;52.77;73.39;;
72466;Laerm;60471;52.150;4.508;2023-09-19T08:09:59;61.90;52.91;72.00;;
72466;Laerm;60471;52.150;4.508;2023-09-19T08:12:25;61.41;52.91;71.63;;
72466;Laerm;60471;52.150;4.508;2023-09-19T08:14:51;61.19;52.21;73.26;;
72466;Laerm;60471;52.150;4.508;2023-09-19T08:17:17;62.37;54.43;80.37;;
72466;Laerm;60471;52.150;4.508;2023-09-19T08:19:45;61.93;53.84;72.35;;
72466;Laerm;60471;52.150;4.508;2023-09-19T08:22:12;62.18;52.61;82.45;;
72466;Laerm;60471;52.150;4.508;2023-09-19T08:24:38;62.02;53.24;71.95;;
72466;Laerm;60471;52.150;4.508;2023-09-19T08:27:04;62.53;55.27;77.27;;
72466;Laerm;60471;52.150;4.508;2023-09-19T08:29:33;63.23;54.49;79.04;;
72466;Laerm;60471;52.150;4.508;2023-09-19T08:32:01;64.13;54.07;86.40;;
72466;Laerm;60471;52.150;4.508;2023-09-19T08:34:27;63.05;54.25;78.01;;
72466;Laerm;60471;52.150;4.508;2023-09-19T08:36:54;64.45;55.79;83.27;;
72466;Laerm;60471;52.150;4.508;2023-09-19T08:39:23;69.61;56.52;88.19;;
72466;Laerm;60471;52.150;4.508;2023-09-19T08:41:49;73.02;55.32;90.95;;
72466;Laerm;60471;52.150;4.508;2023-09-19T08:44:16;62.64;54.71;74.38;;
72466;Laerm;60471;52.150;4.508;2023-09-19T08:46:44;62.43;54.57;75.26;;
72466;Laerm;60471;52.150;4.508;2023-09-19T08:49:24;61.98;54.51;75.32;;
72466;Laerm;60471;52.150;4.508;2023-09-19T08:52:05;62.04;53.67;79.60;;
72466;Laerm;60471;52.150;4.508;2023-09-19T08:54:40;61.90;53.22;72.50;;
72466;Laerm;60471;52.150;4.508;2023-09-19T08:57:07;63.01;54.76;79.21;;
72466;Laerm;60471;52.150;4.508;2023-09-19T08:59:41;61.99;54.34;75.83;;
72466;Laerm;60471;52.150;4.508;2023-09-19T09:02:12;62.86;55.69;71.73;;
72466;Laerm;60471;52.150;4.508;2023-09-19T09:04:43;62.39;53.41;76.61;;
72466;Laerm;60471;52.150;4.508;2023-09-19T09:07:11;63.48;54.38;84.83;;
72466;Laerm;60471;52.150;4.508;2023-09-19T09:09:42;61.83;53.49;72.32;;
72466;Laerm;60471;52.150;4.508;2023-09-19T09:12:14;61.97;53.91;72.01;;
72466;Laerm;60471;52.150;4.508;2023-09-19T09:14:45;61.46;52.69;71.38;;
72466;Laerm;60471;52.150;4.508;2023-09-19T09:17:16;61.86;53.36;80.21;;
72466;Laerm;60471;52.150;4.508;2023-09-19T09:19:46;62.84;55.39;73.63;;
72466;Laerm;60471;52.150;4.508;2023-09-19T09:22:16;62.81;55.49;80.94;;
72466;Laerm;60471;52.150;4.508;2023-09-19T09:24:57;64.99;56.85;85.62;;
72466;Laerm;60471;52.150;4.508;2023-09-19T09:27:24;66.10;57.50;86.36;;
72466;Laerm;60471;52.150;4.508;2023-09-19T09:29:52;64.06;54.78;83.32;;
72466;Laerm;60471;52.150;4.508;2023-09-19T09:32:29;62.84;55.05;77.99;;
72466;Laerm;60471;52.150;4.508;2023-09-19T09:35:00;64.99;57.34;81.83;;
72466;Laerm;60471;52.150;4.508;2023-09-19T09:37:28;63.72;56.30;83.65;;
72466;Laerm;60471;52.150;4.508;2023-09-19T09:39:59;64.36;57.17;78.79;;
72466;Laerm;60471;52.150;4.508;2023-09-19T09:42:43;63.63;56.23;78.74;;
72466;Laerm;60471;52.150;4.508;2023-09-19T09:45:21;63.98;57.10;83.02;;
72466;Laerm;60471;52.150;4.508;2023-09-19T09:48:01;63.64;56.01;81.84;;
72466;Laerm;60471;52.150;4.508;2023-09-19T09:50:34;65.02;54.87;84.04;;
72466;Laerm;60471;52.150;4.508;2023-09-19T09:53:26;65.33;56.26;89.22;;
72466;Laerm;60471;52.150;4.508;2023-09-19T09:56:09;63.46;55.56;84.55;;
72466;Laerm;60471;52.150;4.508;2023-09-19T09:58:48;65.56;54.92;86.80;;
72466;Laerm;60471;52.150;4.508;2023-09-19T10:01:15;64.87;55.96;87.17;;
72466;Laerm;60471;52.150;4.508;2023-09-19T10:03:43;64.21;56.00;85.53;;
72466;Laerm;60471;52.150;4.508;2023-09-19T10:06:16;65.01;56.17;87.17;;
72466;Laerm;60471;52.150;4.508;2023-09-19T10:09:00;63.99;54.50;87.29;;
72466;Laerm;60471;52.150;4.508;2023-09-19T10:11:48;63.45;56.25;84.34;;
72466;Laerm;60471;52.150;4.508;2023-09-19T10:14:29;65.76;56.04;84.02;;
72466;Laerm;60471;52.150;4.508;2023-09-19T10:16:59;63.24;55.36;82.33;;
72466;Laerm;60471;52.150;4.508;2023-09-19T10:22:19;62.69;54.38;82.12;;
72466;Laerm;60471;52.150;4.508;2023-09-19T10:24:49;64.08;55.14;77.62;;
72466;Laerm;60471;52.150;4.508;2023-09-19T10:27:20;64.16;55.97;83.68;;
72466;Laerm;60471;52.150;4.508;2023-09-19T10:29:49;63.22;55.82;77.74;;
72466;Laerm;60471;52.150;4.508;2023-09-19T10:32:22;60.80;55.31;74.43;;
72466;Laerm;60471;52.150;4.508;2023-09-19T10:34:50;66.75;55.56;86.62;;
72466;Laerm;60471;52.150;4.508;2023-09-19T10:37:17;65.83;57.05;89.64;;
72466;Laerm;60471;52.150;4.508;2023-09-19T10:39:48;63.46;56.41;84.81;;
72466;Laerm;60471;52.150;4.508;2023-09-19T10:42:19;63.99;55.31;79.44;;
72466;Laerm;60471;52.150;4.508;2023-09-19T10:44:52;63.48;55.09;83.48;;
72466;Laerm;60471;52.150;4.508;2023-09-19T10:47:21;62.82;55.11;77.31;;
72466;Laerm;60471;52.150;4.508;2023-09-19T10:49:50;66.35;57.16;87.29;;
72466;Laerm;60471;52.150;4.508;2023-09-19T10:52:23;65.20;56.88;84.42;;
72466;Laerm;60471;52.150;4.508;2023-09-19T10:54:54;65.96;57.78;85.91;;
72466;Laerm;60471;52.150;4.508;2023-09-19T10:57:24;67.38;57.03;88.53;;
72466;Laerm;60471;52.150;4.508;2023-09-19T11:00:09;64.80;54.98;83.97;;
72466;Laerm;60471;52.150;4.508;2023-09-19T11:03:16;64.41;56.67;85.81;;
72466;Laerm;60471;52.150;4.508;2023-09-19T11:06:05;63.11;56.71;77.11;;
72466;Laerm;60471;52.150;4.508;2023-09-19T11:09:05;64.07;56.50;80.35;;
72466;Laerm;60471;52.150;4.508;2023-09-19T11:11:41;64.66;58.05;78.95;;
72466;Laerm;60471;52.150;4.508;2023-09-19T11:33:29;66.85;55.74;87.91;;
72466;Laerm;60471;52.150;4.508;2023-09-19T11:36:06;64.64;57.79;82.33;;
72466;Laerm;60471;52.150;4.508;2023-09-19T11:49:19;68.03;59.90;87.22;;
72466;Laerm;60471;52.150;4.508;2023-09-19T11:51:52;68.65;59.46;80.54;;
72466;Laerm;60471;52.150;4.508;2023-09-19T11:54:20;65.97;57.58;82.37;;
72466;Laerm;60471;52.150;4.508;2023-09-19T11:56:54;66.40;58.75;76.59;;
72466;Laerm;60471;52.150;4.508;2023-09-19T11:59:26;67.01;59.38;80.31;;
72466;Laerm;60471;52.150;4.508;2023-09-19T12:04:39;66.92;60.33;80.16;;
72466;Laerm;60471;52.150;4.508;2023-09-19T12:07:12;69.03;61.51;78.88;;
72466;Laerm;60471;52.150;4.508;2023-09-19T12:09:43;69.68;60.82;80.07;;
72466;Laerm;60471;52.150;4.508;2023-09-19T12:12:11;68.33;57.35;84.46;;
72466;Laerm;60471;52.150;4.508;2023-09-19T12:14:48;64.71;56.82;77.85;;
72466;Laerm;60471;52.150;4.508;2023-09-19T12:17:16;67.49;59.02;87.49;;
72466;Laerm;60471;52.150;4.508;2023-09-19T12:19:56;65.14;56.00;84.60;;
72466;Laerm;60471;52.150;4.508;2023-09-19T12:22:23;63.56;55.22;78.43;;
72466;Laerm;60471;52.150;4.508;2023-09-19T12:24:49;65.72;55.85;87.23;;
72466;Laerm;60471;52.150;4.508;2023-09-19T12:27:16;66.20;56.22;84.97;;
72466;Laerm;60471;52.150;4.508;2023-09-19T12:29:44;65.57;58.35;80.33;;
72466;Laerm;60471;52.150;4.508;2023-09-19T12:32:12;66.28;59.16;83.90;;
72466;Laerm;60471;52.150;4.508;2023-09-19T12:34:39;65.85;57.92;90.45;;
72466;Laerm;60471;52.150;4.508;2023-09-19T12:37:16;62.58;55.84;80.17;;
72466;Laerm;60471;52.150;4.508;2023-09-19T12:39:50;65.41;56.62;84.09;;
72466;Laerm;60471;52.150;4.508;2023-09-19T12:42:24;66.58;59.09;88.98;;
72466;Laerm;60471;52.150;4.508;2023-09-19T12:44:56;64.69;56.86;81.57;;
72466;Laerm;60471;52.150;4.508;2023-09-19T12:47:24;64.00;55.59;81.39;;
72466;Laerm;60471;52.150;4.508;2023-09-19T12:50:15;63.53;56.32;80.86;;
72466;Laerm;60471;52.150;4.508;2023-09-19T12:52:49;63.65;56.09;81.87;;
72466;Laerm;60471;52.150;4.508;2023-09-19T12:55:27;65.01;55.12;85.46;;
72466;Laerm;60471;52.150;4.508;2023-09-19T12:58:12;64.19;54.29;81.13;;
72466;Laerm;60471;52.150;4.508;2023-09-19T13:00:41;64.97;57.48;80.58;;
72466;Laerm;60471;52.150;4.508;2023-09-19T13:05:56;65.75;55.99;88.35;;
72466;Laerm;60471;52.150;4.508;2023-09-19T13:11:09;64.24;56.40;88.08;;
72466;Laerm;60471;52.150;4.508;2023-09-19T13:13:38;66.33;55.47;88.75;;
72466;Laerm;60471;52.150;4.508;2023-09-19T13:16:05;66.83;57.91;85.49;;
72466;Laerm;60471;52.150;4.508;2023-09-19T13:18:45;66.66;57.25;91.21;;
72466;Laerm;60471;52.150;4.508;2023-09-19T13:21:14;62.92;54.70;82.87;;
72466;Laerm;60471;52.150;4.508;2023-09-19T13:24:23;62.94;54.86;85.35;;
72466;Laerm;60471;52.150;4.508;2023-09-19T13:26:51;62.81;55.43;75.91;;
72466;Laerm;60471;52.150;4.508;2023-09-19T13:29:18;65.25;55.27;88.14;;
72466;Laerm;60471;52.150;4.508;2023-09-19T13:31:52;62.63;56.18;73.91;;
72466;Laerm;60471;52.150;4.508;2023-09-19T13:34:19;62.87;55.88;74.08;;
72466;Laerm;60471;52.150;4.508;2023-09-19T13:36:47;63.31;55.72;75.95;;
72466;Laerm;60471;52.150;4.508;2023-09-19T13:39:16;64.85;56.51;82.11;;
72466;Laerm;60471;52.150;4.508;2023-09-19T13:41:49;68.43;56.82;85.31;;
72466;Laerm;60471;52.150;4.508;2023-09-19T13:44:15;62.88;54.62;73.77;;
72466;Laerm;60471;52.150;4.508;2023-09-19T13:46:44;62.60;54.23;73.24;;
72466;Laerm;60471;52.150;4.508;2023-09-19T13:49:11;63.70;56.42;80.75;;
72466;Laerm;60471;52.150;4.508;2023-09-19T13:51:38;62.67;55.79;80.44;;
72466;Laerm;60471;52.150;4.508;2023-09-19T13:54:04;62.51;54.89;75.44;;
72466;Laerm;60471;52.150;4.508;2023-09-19T13:56:31;63.27;53.81;75.97;;
72466;Laerm;60471;52.150;4.508;2023-09-19T13:58:58;62.27;54.88;71.95;;
72466;Laerm;60471;52.150;4.508;2023-09-19T14:01:24;63.62;53.87;77.53;;
72466;Laerm;60471;52.150;4.508;2023-09-19T14:03:52;66.19;57.66;87.47;;
72466;Laerm;60471;52.150;4.508;2023-09-19T14:06:20;64.41;57.38;82.89;;
72466;Laerm;60471;52.150;4.508;2023-09-19T14:08:46;63.73;54.33;90.97;;
72466;Laerm;60471;52.150;4.508;2023-09-19T14:11:15;62.45;54.68;79.47;;
72466;Laerm;60471;52.150;4.508;2023-09-19T14:13:43;62.81;55.91;73.79;;
72466;Laerm;60471;52.150;4.508;2023-09-19T14:16:16;62.75;56.24;75.63;;
72466;Laerm;60471;52.150;4.508;2023-09-19T14:18:45;63.55;55.82;76.66;;
72466;Laerm;60471;52.150;4.508;2023-09-19T14:21:12;64.20;57.32;81.41;;
72466;Laerm;60471;52.150;4.508;2023-09-19T14:23:40;65.18;57.39;81.92;;
72466;Laerm;60471;52.150;4.508;2023-09-19T14:26:12;64.13;55.36;82.49;;
72466;Laerm;60471;52.150;4.508;2023-09-19T14:28:38;63.01;54.87;72.57;;
72466;Laerm;60471;52.150;4.508;2023-09-19T14:31:10;63.79;55.04;83.17;;
72466;Laerm;60471;52.150;4.508;2023-09-19T14:33:38;63.07;55.38;85.82;;
72466;Laerm;60471;52.150;4.508;2023-09-19T14:36:08;63.71;56.54;84.04;;
72466;Laerm;60471;52.150;4.508;2023-09-19T14:38:37;63.64;55.95;78.77;;
72466;Laerm;60471;52.150;4.508;2023-09-19T14:41:06;62.57;54.61;78.13;;
72466;Laerm;60471;52.150;4.508;2023-09-19T14:43:32;62.82;54.75;74.26;;
72466;Laerm;60471;52.150;4.508;2023-09-19T14:46:08;63.38;56.17;78.72;;
72466;Laerm;60471;52.150;4.508;2023-09-19T14:48:39;62.89;56.00;71.18;;
72466;Laerm;60471;52.150;4.508;2023-09-19T14:51:07;62.97;53.85;77.60;;
72466;Laerm;60471;52.150;4.508;2023-09-19T14:53:37;64.63;57.38;78.54;;